createdAt,value
2018-02-21T00:02:07.245Z,17.90
2018-02-21T00:04:34.675Z,21.50
2018-02-21T00:07:02.131Z,19.67
2018-02-21T00:09:29.569Z,19.73
2018-02-21T00:11:57.784Z,18.00
2018-02-21T00:14:25.332Z,20.57
2018-02-21T00:16:52.789Z,20.63
2018-02-21T00:19:20.224Z,20.10
2018-02-21T00:21:48.485Z,19.30
2018-02-21T00:24:15.956Z,20.43
2018-02-21T00:26:44.176Z,21.57
2018-02-21T00:29:11.665Z,18.50
2018-02-21T00:31:39.120Z,21.63
2018-02-21T00:34:06.600Z,19.80
2018-02-21T00:36:34.195Z,20.80
2018-02-21T00:39:01.602Z,20.33
2018-02-21T00:41:29.068Z,19.60
2018-02-21T00:43:56.535Z,20.50
2018-02-21T00:46:23.979Z,21.77
2018-02-21T00:48:51.436Z,18.77
2018-02-21T00:51:18.915Z,19.30
2018-02-21T00:53:46.385Z,19.63
2018-02-21T00:56:13.817Z,22.00
2018-02-21T00:58:41.272Z,20.73
2018-02-21T01:01:08.762Z,20.20
2018-02-21T01:03:36.215Z,23.80
2018-02-21T01:06:03.679Z,20.57
2018-02-21T01:08:31.133Z,23.43
2018-02-21T01:10:58.572Z,20.13
2018-02-21T01:13:26.064Z,21.80
2018-02-21T01:15:53.510Z,23.70
2018-02-21T01:18:20.956Z,23.77
2018-02-21T01:20:48.456Z,22.47
2018-02-21T01:23:16.012Z,22.00
2018-02-21T01:25:43.476Z,24.27
2018-02-21T01:28:10.927Z,21.47
2018-02-21T01:30:38.355Z,23.40
2018-02-21T01:33:05.798Z,22.90
2018-02-21T01:35:34.008Z,22.20
2018-02-21T01:38:01.611Z,23.97
2018-02-21T01:40:29.060Z,24.97
2018-02-21T01:42:56.512Z,21.77
2018-02-21T01:45:23.983Z,23.47
2018-02-21T01:47:51.447Z,23.07
2018-02-21T01:50:18.882Z,21.97
2018-02-21T01:52:46.355Z,23.57
2018-02-21T01:55:13.839Z,20.00
2018-02-21T01:57:41.304Z,23.97
2018-02-21T02:00:08.856Z,21.77
2018-02-21T02:02:36.319Z,22.53
2018-02-21T02:05:03.891Z,24.47
2018-02-21T02:07:31.336Z,23.57
2018-02-21T02:09:58.792Z,21.90
2018-02-21T02:12:27.196Z,23.60
2018-02-21T02:14:56.456Z,22.47
2018-02-21T02:17:23.920Z,23.30
2018-02-21T02:19:51.359Z,22.40
2018-02-21T02:22:19.591Z,23.20
2018-02-21T02:24:47.038Z,24.27
2018-02-21T02:27:14.480Z,23.03
2018-02-21T02:29:41.980Z,23.10
2018-02-21T02:32:09.425Z,25.53
2018-02-21T02:34:36.907Z,22.17
2018-02-21T02:37:04.371Z,22.97
2018-02-21T02:39:43.801Z,25.87
2018-02-21T02:42:11.268Z,24.37
2018-02-21T02:44:38.818Z,24.97
2018-02-21T02:47:06.265Z,25.00
2018-02-21T02:49:33.744Z,25.60
2018-02-21T02:52:01.212Z,23.90
2018-02-21T02:54:28.655Z,24.80
2018-02-21T02:56:56.098Z,23.53
2018-02-21T02:59:23.584Z,24.40
2018-02-21T03:01:51.029Z,23.23
2018-02-21T03:04:18.480Z,26.23
2018-02-21T03:06:45.945Z,24.70
2018-02-21T03:09:13.435Z,25.37
2018-02-21T03:11:40.867Z,26.37
2018-02-21T03:14:08.315Z,25.93
2018-02-21T03:16:36.516Z,24.07
2018-02-21T03:19:03.997Z,24.07
2018-02-21T03:21:31.471Z,26.50
2018-02-21T03:23:58.919Z,25.53
2018-02-21T03:26:26.372Z,25.53
2018-02-21T03:28:53.826Z,26.33
2018-02-21T03:31:21.305Z,23.80
2018-02-21T03:33:48.756Z,25.20
2018-02-21T03:36:16.275Z,27.23
2018-02-21T03:38:44.543Z,26.87
2018-02-21T03:41:11.992Z,24.40
2018-02-21T03:43:39.432Z,24.43
2018-02-21T03:46:06.920Z,24.80
2018-02-21T03:48:35.180Z,24.50
2018-02-21T03:51:02.628Z,25.90
2018-02-21T03:53:30.077Z,24.10
2018-02-21T03:55:57.548Z,25.43
2018-02-21T03:58:25.040Z,23.53
2018-02-21T04:00:52.573Z,27.20
2018-02-21T04:03:20.003Z,25.37
2018-02-21T04:05:47.458Z,23.53
2018-02-21T04:08:14.908Z,24.03
2018-02-21T04:10:43.124Z,27.23
2018-02-21T04:13:10.602Z,24.97
2018-02-21T04:15:38.062Z,24.03
2018-02-21T04:18:05.507Z,25.47
2018-02-21T04:20:32.982Z,25.20
2018-02-21T04:23:00.452Z,27.47
2018-02-21T04:25:27.895Z,26.50
2018-02-21T04:27:55.340Z,27.20
2018-02-21T04:30:22.828Z,24.60
2018-02-21T04:32:50.267Z,26.90
2018-02-21T04:35:17.716Z,24.07
2018-02-21T04:37:45.160Z,26.10
2018-02-21T04:40:13.379Z,25.97
2018-02-21T04:42:40.878Z,22.33
2018-02-21T04:45:08.424Z,27.80
2018-02-21T04:47:35.864Z,24.50
2018-02-21T04:50:03.335Z,22.20
2018-02-21T04:52:30.775Z,23.40
2018-02-21T04:55:00.996Z,24.70
2018-02-21T04:57:34.183Z,26.20
2018-02-21T05:00:03.248Z,26.60
2018-02-21T05:02:30.684Z,24.60
2018-02-21T05:04:58.235Z,26.97
2018-02-21T05:07:25.703Z,25.80
2018-02-21T05:09:53.272Z,25.77
2018-02-21T05:12:20.730Z,26.33
2018-02-21T05:14:48.188Z,25.33
2018-02-21T05:17:15.625Z,26.93
2018-02-21T05:19:43.193Z,25.30
2018-02-21T05:22:10.672Z,25.93
2018-02-21T05:24:38.140Z,28.00
2018-02-21T05:27:05.610Z,25.73
2018-02-21T05:29:33.059Z,25.90
2018-02-21T05:32:00.544Z,22.50
2018-02-21T05:34:27.978Z,24.73
2018-02-21T05:36:55.416Z,25.80
2018-02-21T05:39:22.880Z,23.63
2018-02-21T05:41:50.326Z,24.10
2018-02-21T05:44:17.851Z,25.67
2018-02-21T05:46:45.330Z,25.40
2018-02-21T05:49:13.608Z,24.90
2018-02-21T05:51:41.823Z,25.30
2018-02-21T05:54:09.258Z,23.40
2018-02-21T05:56:37.477Z,22.37
2018-02-21T05:59:04.953Z,24.07
2018-02-21T06:01:32.405Z,24.03
2018-02-21T06:03:59.848Z,23.73
2018-02-21T06:06:27.309Z,23.53
2018-02-21T06:08:54.804Z,22.00
2018-02-21T06:11:22.256Z,24.33
2018-02-21T06:13:49.700Z,24.90
2018-02-21T06:16:17.184Z,25.43
2018-02-21T06:18:44.812Z,21.23
2018-02-21T06:21:12.270Z,26.30
2018-02-21T06:23:39.699Z,21.10
2018-02-21T06:26:07.160Z,23.50
2018-02-21T06:28:34.697Z,25.97
2018-02-21T06:31:02.156Z,21.47
2018-02-21T06:33:29.599Z,24.20
2018-02-21T06:35:57.157Z,23.30
2018-02-21T06:38:24.578Z,23.20
2018-02-21T06:40:52.814Z,23.27
2018-02-21T06:43:20.263Z,24.60
2018-02-21T06:45:47.723Z,22.20
2018-02-21T06:48:15.180Z,23.77
2018-02-21T06:50:42.636Z,23.60
2018-02-21T06:53:10.084Z,24.30
2018-02-21T06:55:39.089Z,20.90
2018-02-21T06:58:06.568Z,24.77
2018-02-21T07:00:34.767Z,21.70
2018-02-21T07:03:02.220Z,23.70
2018-02-21T07:05:29.659Z,23.57
2018-02-21T07:07:57.164Z,22.93
2018-02-21T07:10:24.708Z,22.57
2018-02-21T07:12:52.167Z,22.83
2018-02-21T07:15:19.632Z,23.70
2018-02-21T07:17:47.064Z,21.37
2018-02-21T07:20:14.550Z,22.00
2018-02-21T07:22:42.035Z,21.90
2018-02-21T07:25:09.504Z,23.10
2018-02-21T07:27:36.944Z,21.40
2018-02-21T07:30:04.399Z,21.63
2018-02-21T07:32:31.867Z,20.50
2018-02-21T07:34:59.334Z,20.57
2018-02-21T07:37:26.788Z,23.00
2018-02-21T07:39:54.220Z,21.30
2018-02-21T07:42:21.668Z,22.20
2018-02-21T07:44:49.163Z,21.87
2018-02-21T07:47:16.624Z,22.97
2018-02-21T07:49:44.097Z,22.77
2018-02-21T07:52:11.556Z,21.03
2018-02-21T07:54:39.348Z,23.20
2018-02-21T07:57:06.784Z,20.97
2018-02-21T07:59:34.216Z,22.40
2018-02-21T08:02:01.711Z,20.60
2018-02-21T08:04:29.163Z,21.53
2018-02-21T08:06:56.692Z,19.77
2018-02-21T08:09:24.892Z,20.17
2018-02-21T08:11:52.389Z,20.70
2018-02-21T08:14:19.823Z,20.70
2018-02-21T08:16:47.301Z,21.70
2018-02-21T08:19:15.423Z,21.53
2018-02-21T08:21:43.083Z,20.50
2018-02-21T08:24:11.341Z,21.20
2018-02-21T08:26:38.875Z,21.30
2018-02-21T08:29:06.333Z,22.40
2018-02-21T08:31:33.836Z,22.60
2018-02-21T08:34:02.042Z,21.83
2018-02-21T08:36:29.542Z,23.57
2018-02-21T08:38:56.987Z,19.87
2018-02-21T08:41:24.469Z,22.90
2018-02-21T08:43:51.927Z,21.63
2018-02-21T08:46:19.365Z,22.63
2018-02-21T08:48:46.803Z,24.27
2018-02-21T08:51:14.276Z,22.83
2018-02-21T08:53:41.723Z,22.40
2018-02-21T08:56:09.924Z,22.00
2018-02-21T08:58:37.376Z,21.87
2018-02-21T09:01:04.811Z,23.10
2018-02-21T09:03:33.036Z,19.47
2018-02-21T09:06:00.471Z,20.27
2018-02-21T09:08:27.947Z,20.93
2018-02-21T09:10:55.395Z,20.80
2018-02-21T09:13:23.600Z,19.97
2018-02-21T09:15:51.039Z,20.50
2018-02-21T09:18:18.480Z,20.87
2018-02-21T09:20:46.763Z,18.73
2018-02-21T09:23:14.352Z,19.40
2018-02-21T09:25:41.771Z,19.00
2018-02-21T09:28:09.210Z,18.20
2018-02-21T09:30:36.643Z,18.70
2018-02-21T09:33:04.092Z,18.30
2018-02-21T09:35:31.544Z,16.80
2018-02-21T09:37:58.991Z,17.80
2018-02-21T09:40:27.208Z,18.17
2018-02-21T09:42:54.654Z,18.33
2018-02-21T09:45:22.843Z,17.50
2018-02-21T09:47:50.304Z,19.20
2018-02-21T09:50:17.753Z,18.33
2018-02-21T09:52:45.209Z,18.50
2018-02-21T09:55:12.649Z,20.67
2018-02-21T09:57:40.958Z,19.87
2018-02-21T10:00:08.387Z,18.10
2018-02-21T10:02:36.628Z,17.03
2018-02-21T10:05:04.080Z,19.20
2018-02-21T10:07:31.533Z,18.97
2018-02-21T10:09:58.982Z,19.30
2018-02-21T10:12:26.412Z,19.10
2018-02-21T10:14:54.636Z,15.70
2018-02-21T10:17:22.189Z,17.60
2018-02-21T10:19:49.647Z,17.87
2018-02-21T10:22:17.091Z,16.60
2018-02-21T10:24:44.544Z,19.60
2018-02-21T10:27:12.753Z,17.67
2018-02-21T10:29:40.248Z,16.00
2018-02-21T10:32:07.772Z,18.87
2018-02-21T10:34:35.215Z,19.00
2018-02-21T10:37:03.419Z,16.23
2018-02-21T10:39:30.871Z,16.83
2018-02-21T10:41:58.344Z,17.77
2018-02-21T10:44:25.845Z,17.13
2018-02-21T10:46:53.312Z,18.07
2018-02-21T10:49:20.753Z,16.63
2018-02-21T10:51:48.199Z,17.90
2018-02-21T10:54:15.646Z,17.67
2018-02-21T10:56:43.078Z,16.73
2018-02-21T10:59:11.292Z,17.13
2018-02-21T11:01:38.736Z,15.63
2018-02-21T11:04:06.183Z,17.60
2018-02-21T11:06:33.744Z,17.63
2018-02-21T11:09:01.965Z,16.33
2018-02-21T11:11:29.404Z,15.27
2018-02-21T11:13:56.856Z,16.03
2018-02-21T11:16:24.340Z,15.40
2018-02-21T11:18:51.793Z,15.97
2018-02-21T11:21:19.233Z,16.30
2018-02-21T11:23:47.467Z,14.83
2018-02-21T11:26:14.924Z,17.13
2018-02-21T11:28:42.455Z,15.00
2018-02-21T11:31:09.885Z,15.27
2018-02-21T11:33:38.101Z,15.00
2018-02-21T11:36:05.583Z,16.27
2018-02-21T11:38:33.036Z,14.87
2018-02-21T11:41:00.479Z,16.20
2018-02-21T11:43:27.944Z,16.07
2018-02-21T11:45:55.383Z,14.53
2018-02-21T11:48:22.839Z,16.07
2018-02-21T11:50:51.073Z,19.03
2018-02-21T11:53:18.508Z,16.40
2018-02-21T11:55:46.114Z,15.97
2018-02-21T11:58:13.546Z,16.57
2018-02-21T12:00:40.987Z,15.40
2018-02-21T12:03:08.432Z,15.03
2018-02-21T12:05:35.937Z,16.27
2018-02-21T12:08:03.408Z,15.30
2018-02-21T12:10:30.863Z,16.00
2018-02-21T12:12:58.331Z,16.70
2018-02-21T12:15:25.772Z,14.30
2018-02-21T12:17:53.223Z,16.50
2018-02-21T12:20:20.678Z,15.80
2018-02-21T12:22:48.230Z,17.20
2018-02-21T12:25:16.493Z,15.00
2018-02-21T12:27:44.700Z,15.17
2018-02-21T12:30:12.195Z,14.70
2018-02-21T12:32:40.772Z,14.00
2018-02-21T12:35:08.233Z,16.20
2018-02-21T12:37:35.705Z,16.33
2018-02-21T12:40:03.156Z,16.90
2018-02-21T12:42:30.583Z,14.97
2018-02-21T12:44:58.033Z,13.37
2018-02-21T12:47:26.269Z,13.77
2018-02-21T12:49:53.736Z,14.90
2018-02-21T12:52:21.175Z,13.90
2018-02-21T12:54:49.866Z,14.53
2018-02-21T12:57:17.291Z,14.80
2018-02-21T12:59:45.523Z,15.40
2018-02-21T13:02:12.963Z,15.13
2018-02-21T13:04:40.428Z,15.30
2018-02-21T13:07:07.872Z,14.63
2018-02-21T13:09:35.333Z,15.30
2018-02-21T13:12:02.776Z,15.07
2018-02-21T13:14:30.996Z,14.60
2018-02-21T13:16:58.539Z,14.50
2018-02-21T13:19:25.999Z,14.50
2018-02-21T13:21:53.498Z,15.47
2018-02-21T13:24:21.058Z,15.67
2018-02-21T13:26:48.510Z,14.40
2018-02-21T13:29:16.009Z,14.03
2018-02-21T13:31:43.614Z,15.87
2018-02-21T13:34:11.048Z,15.33
2018-02-21T13:36:39.464Z,14.13
2018-02-21T13:39:06.921Z,14.77
2018-02-21T13:41:34.371Z,13.20
2018-02-21T13:44:01.821Z,15.10
2018-02-21T13:46:30.041Z,13.67
2018-02-21T13:48:57.503Z,15.53
2018-02-21T13:51:24.976Z,14.93
2018-02-21T13:53:52.423Z,14.13
2018-02-21T13:56:19.872Z,14.50
2018-02-21T13:58:47.312Z,13.67
2018-02-21T14:01:14.755Z,14.83
2018-02-21T14:03:42.972Z,14.37
2018-02-21T14:06:10.440Z,14.10
2018-02-21T14:08:37.913Z,13.93
2018-02-21T14:11:05.360Z,13.27
2018-02-21T14:13:32.912Z,14.90
2018-02-21T14:16:00.411Z,15.20
2018-02-21T14:18:27.884Z,12.23
2018-02-21T14:20:55.335Z,14.80
2018-02-21T14:23:22.798Z,15.80
2018-02-21T14:25:50.243Z,13.30
2018-02-21T14:28:17.695Z,13.90
2018-02-21T14:30:45.168Z,13.77
2018-02-21T14:33:12.624Z,14.70
2018-02-21T14:35:40.088Z,13.97
2018-02-21T14:38:07.556Z,12.60
2018-02-21T14:40:35.008Z,12.57
2018-02-21T14:43:02.459Z,12.23
2018-02-21T14:45:29.940Z,12.40
2018-02-21T14:47:57.395Z,11.57
2018-02-21T14:50:24.861Z,11.63
2018-02-21T14:52:52.304Z,13.47
2018-02-21T14:55:19.786Z,12.77
2018-02-21T14:57:47.224Z,11.93
2018-02-21T15:00:14.676Z,12.17
2018-02-21T15:02:42.931Z,12.33
2018-02-21T15:05:11.132Z,12.20
2018-02-21T15:07:38.700Z,11.50
2018-02-21T15:10:06.201Z,12.47
2018-02-21T15:12:33.677Z,13.30
2018-02-21T15:15:01.115Z,11.87
2018-02-21T15:17:28.577Z,11.43
2018-02-21T15:19:56.008Z,13.73
2018-02-21T15:22:23.460Z,11.70
2018-02-21T15:24:50.959Z,11.80
2018-02-21T15:27:18.419Z,12.77
2018-02-21T15:29:45.865Z,11.30
2018-02-21T15:32:13.332Z,11.53
2018-02-21T15:34:40.751Z,10.10
2018-02-21T15:37:08.978Z,10.87
2018-02-21T15:39:36.424Z,13.07
2018-02-21T15:42:04.037Z,10.90
2018-02-21T15:44:31.464Z,11.70
2018-02-21T15:46:58.910Z,10.20
2018-02-21T15:49:26.391Z,11.93
2018-02-21T15:51:53.864Z,10.63
2018-02-21T15:54:21.301Z,11.10
2018-02-21T15:56:48.781Z,12.20
2018-02-21T15:59:16.311Z,11.10
2018-02-21T16:01:43.744Z,10.70
2018-02-21T16:04:11.957Z,11.13
2018-02-21T16:06:39.454Z,10.90
2018-02-21T16:09:06.870Z,11.50
2018-02-21T16:11:34.347Z,10.70
2018-02-21T16:14:01.808Z,10.13
2018-02-21T16:16:29.292Z,10.13
2018-02-21T16:18:56.732Z,12.90
2018-02-21T16:21:24.175Z,12.63
2018-02-21T16:23:51.634Z,10.00
2018-02-21T16:26:19.076Z,10.30
2018-02-21T16:28:47.361Z,9.13
2018-02-21T16:31:15.585Z,9.63
2018-02-21T16:33:43.045Z,10.33
2018-02-21T16:36:10.500Z,11.93
2018-02-21T16:38:37.952Z,11.70
2018-02-21T16:41:05.388Z,12.40
2018-02-21T16:43:32.888Z,11.43
2018-02-21T16:46:00.374Z,11.10
2018-02-21T16:48:27.874Z,10.30
2018-02-21T16:50:55.322Z,10.07
2018-02-21T16:53:23.532Z,11.17
2018-02-21T16:55:51.019Z,9.87
2018-02-21T16:58:18.524Z,9.47
2018-02-21T17:00:46.719Z,11.73
2018-02-21T17:03:14.936Z,10.80
2018-02-21T17:05:42.395Z,11.67
2018-02-21T17:08:09.898Z,11.00
2018-02-21T17:10:37.335Z,9.60
2018-02-21T17:13:04.772Z,11.13
2018-02-21T17:15:32.246Z,10.47
2018-02-21T17:17:59.713Z,11.90
2018-02-21T17:20:29.121Z,10.47
2018-02-21T17:22:56.601Z,9.50
2018-02-21T17:25:24.036Z,10.27
2018-02-21T17:27:51.500Z,10.80
2018-02-21T17:30:18.943Z,10.63
2018-02-21T17:32:46.384Z,9.80
2018-02-21T17:35:13.892Z,10.27
2018-02-21T17:37:41.350Z,10.70
2018-02-21T17:40:08.803Z,10.70
2018-02-21T17:42:36.259Z,10.73
2018-02-21T17:45:03.693Z,11.33
2018-02-21T17:47:31.162Z,11.30
2018-02-21T17:49:58.647Z,11.37
2018-02-21T17:52:26.104Z,10.07
2018-02-21T17:54:53.558Z,10.97
2018-02-21T17:57:21.143Z,11.10
2018-02-21T17:59:48.552Z,10.73
2018-02-21T18:02:16.768Z,11.63
2018-02-21T18:04:44.209Z,11.50
2018-02-21T18:07:11.664Z,12.33
2018-02-21T18:09:39.149Z,11.40
2018-02-21T18:12:06.804Z,10.67
2018-02-21T18:14:34.283Z,11.00
2018-02-21T18:17:01.944Z,10.47
2018-02-21T18:19:29.412Z,11.30
2018-02-21T18:21:56.848Z,12.30
2018-02-21T18:24:24.338Z,11.53
2018-02-21T18:26:51.795Z,10.60
2018-02-21T18:29:19.269Z,11.10
2018-02-21T18:31:46.715Z,10.17
2018-02-21T18:34:14.177Z,10.40
2018-02-21T18:36:41.708Z,12.00
2018-02-21T18:39:09.231Z,10.67
2018-02-21T18:41:36.848Z,11.07
2018-02-21T18:44:04.279Z,12.70
2018-02-21T18:46:32.492Z,14.43
2018-02-21T18:49:00.052Z,16.20
2018-02-21T18:51:27.541Z,14.53
2018-02-21T18:53:54.988Z,13.83
2018-02-21T18:56:22.536Z,12.93
2018-02-21T18:58:50.051Z,14.03
2018-02-21T19:01:17.583Z,11.63
2018-02-21T19:03:45.048Z,13.40
2018-02-21T19:06:12.523Z,11.50
2018-02-21T19:08:39.979Z,10.83
2018-02-21T19:11:07.440Z,11.73
2018-02-21T19:13:34.884Z,12.00
2018-02-21T19:16:02.364Z,11.27
2018-02-21T19:18:29.843Z,11.17
2018-02-21T19:20:57.384Z,10.63
2018-02-21T19:23:24.849Z,11.00
2018-02-21T19:25:52.293Z,11.13
2018-02-21T19:28:19.847Z,12.23
2018-02-21T19:30:47.270Z,12.53
2018-02-21T19:33:15.544Z,12.50
2018-02-21T19:35:43.110Z,9.90
2018-02-21T19:38:10.667Z,10.47
2018-02-21T19:40:38.115Z,10.93
2018-02-21T19:43:05.576Z,12.20
2018-02-21T19:45:33.060Z,12.40
2018-02-21T19:48:00.561Z,11.60
2018-02-21T19:50:28.140Z,11.37
2018-02-21T19:52:55.688Z,10.73
2018-02-21T19:55:23.145Z,11.07
2018-02-21T19:57:50.575Z,10.87
2018-02-21T20:00:18.014Z,10.63
2018-02-21T20:02:45.472Z,10.10
2018-02-21T20:05:12.932Z,11.80
2018-02-21T20:07:40.388Z,9.47
2018-02-21T20:10:07.863Z,11.87
2018-02-21T20:12:35.368Z,12.17
2018-02-21T20:15:02.827Z,11.67
2018-02-21T20:17:30.327Z,12.37
2018-02-21T20:19:57.787Z,10.40
2018-02-21T20:22:25.279Z,11.67
2018-02-21T20:24:52.716Z,12.50
2018-02-21T20:27:20.172Z,12.50
2018-02-21T20:29:47.611Z,12.90
2018-02-21T20:32:15.095Z,11.43
2018-02-21T20:34:42.667Z,12.23
2018-02-21T20:37:10.119Z,12.30
2018-02-21T20:39:37.608Z,11.27
2018-02-21T20:42:05.051Z,13.83
2018-02-21T20:44:32.588Z,11.80
2018-02-21T20:47:00.072Z,12.03
2018-02-21T20:49:27.511Z,10.90
2018-02-21T20:51:55.064Z,10.70
2018-02-21T20:54:23.352Z,11.10
2018-02-21T20:56:53.155Z,12.20
2018-02-21T20:59:21.044Z,12.00
2018-02-21T21:01:48.531Z,9.07
2018-02-21T21:04:16.037Z,11.40
2018-02-21T21:06:43.494Z,12.00
2018-02-21T21:09:11.716Z,11.13
2018-02-21T21:11:39.167Z,12.23
2018-02-21T21:14:06.659Z,11.20
2018-02-21T21:16:36.076Z,10.40
2018-02-21T21:19:03.585Z,12.80
2018-02-21T21:21:31.023Z,12.50
2018-02-21T21:23:59.338Z,10.33
2018-02-21T21:26:26.800Z,10.50
2018-02-21T21:28:54.243Z,11.63
2018-02-21T21:31:21.687Z,8.90
2018-02-21T21:33:49.982Z,10.40
2018-02-21T21:36:19.124Z,10.60
2018-02-21T21:38:46.559Z,10.33
2018-02-21T21:41:13.995Z,9.43
2018-02-21T21:43:42.229Z,10.50
2018-02-21T21:46:09.696Z,12.33
2018-02-21T21:48:37.140Z,8.83
2018-02-21T21:51:04.692Z,10.73
2018-02-21T21:53:32.119Z,11.03
2018-02-21T21:56:00.354Z,11.10
2018-02-21T21:58:27.821Z,10.00
2018-02-21T22:00:55.268Z,10.60
2018-02-21T22:03:22.741Z,10.57
2018-02-21T22:05:50.188Z,10.13
2018-02-21T22:08:17.659Z,10.53
2018-02-21T22:10:45.129Z,11.67
2018-02-21T22:13:12.696Z,11.10
2018-02-21T22:15:40.155Z,10.37
2018-02-21T22:18:07.613Z,11.50
2018-02-21T22:20:35.109Z,9.20
2018-02-21T22:23:02.515Z,9.40
2018-02-21T22:25:29.962Z,9.30
2018-02-21T22:27:57.390Z,9.83
2018-02-21T22:30:26.344Z,10.40
2018-02-21T22:32:53.856Z,8.57
2018-02-21T22:35:22.118Z,10.37
2018-02-21T22:37:49.658Z,10.30
2018-02-21T22:40:17.105Z,10.27
2018-02-21T22:42:44.553Z,11.03
2018-02-21T22:45:12.063Z,10.97
2018-02-21T22:47:39.498Z,9.43
2018-02-21T22:50:06.943Z,11.03
2018-02-21T22:52:34.382Z,11.40
2018-02-21T22:55:01.836Z,10.00
2018-02-21T22:57:30.043Z,11.50
2018-02-21T22:59:57.504Z,11.70
2018-02-21T23:02:25.251Z,10.57
2018-02-21T23:04:53.472Z,10.40
2018-02-21T23:07:20.919Z,12.43
2018-02-21T23:09:48.395Z,9.63
2018-02-21T23:12:15.961Z,10.67
2018-02-21T23:14:43.420Z,10.13
2018-02-21T23:17:10.867Z,9.60
2018-02-21T23:19:38.339Z,10.10
2018-02-21T23:22:05.880Z,9.27
2018-02-21T23:24:33.306Z,11.63
2018-02-21T23:27:01.540Z,9.77
2018-02-21T23:29:28.976Z,9.93
2018-02-21T23:31:56.465Z,9.90
2018-02-21T23:34:24.047Z,10.10
2018-02-21T23:36:51.484Z,9.90
2018-02-21T23:39:18.919Z,8.80
2018-02-21T23:41:46.399Z,10.10
2018-02-21T23:44:13.898Z,8.93
2018-02-21T23:46:41.352Z,10.70
2018-02-21T23:49:08.795Z,9.40
2018-02-21T23:51:36.332Z,7.67
2018-02-21T23:54:03.767Z,10.23
2018-02-21T23:56:31.995Z,10.87
2018-02-21T23:58:59.472Z,8.93
